Gargrave, United Kingdom
Current Conditions -  °F | °C
As of 2:50 PM on Monday 22 Dec 2014 (Local Time) from EGNM Reporting Station
Broken Clouds Broken Clouds  
Wind Chill: 12°   Ceiling: 1500
Heat Index: 12°   Visibility: 6mi
Dew Point:   Wind: 37mph
Humidity: 77%   Direction: 260°W
Pressure: 29.68"   Gusts: 59mph
Location:  53.98°N, 2.1°W
Report Text: EGNM 221450Z 26032G51KT 220V280 9999 BKN015 12/08 Q1005
Loading
Personal Weather Stations






























Interactive Weather Map New forecast layout! Learn more

10-Day Weather Forecast

Advertisements
Track Severe Weather on mobile